Time;durP1;ratioP1;P1;durP2;ratioP2;P2;SDS_P1;SDS_P2;PMS_P1;PMS_P2;Temp;Humidity;BMP_temperature;BMP_pressure;BME280_temperature;BME280_humidity;BME280_pressure;Samples;Min_cycle;Max_cycle;Signal;HPM_P1;HPM_P2
2024/02/19 00:00:41;;;;;;;10.10;4.57;;;;;;;;;;5024534;28;20170;-56
2024/02/19 00:03:07;;;;;;;8.27;4.30;;;;;;;;;;5021902;28;20709;-56
2024/02/19 00:05:33;;;;;;;9.13;4.80;;;;;;;;;;5024165;28;20228;-57
2024/02/19 00:07:59;;;;;;;10.13;4.10;;;;;;;;;;5029867;28;20209;-56
2024/02/19 00:10:25;;;;;;;11.83;4.60;;;;;;;;;;5027415;28;20681;-56
2024/02/19 00:12:51;;;;;;;11.63;4.43;;;;;;;;;;5029485;28;20189;-59
2024/02/19 00:15:17;;;;;;;9.87;4.63;;;;;;;;;;5022662;28;20524;-56
2024/02/19 00:17:44;;;;;;;9.47;4.67;;;;;;;;;;5023562;28;20243;-55
2024/02/19 00:20:10;;;;;;;7.17;4.70;;;;;;;;;;5020121;28;20229;-57
2024/02/19 00:22:36;;;;;;;11.43;4.70;;;;;;;;;;5020469;28;20716;-55
2024/02/19 00:25:02;;;;;;;9.27;4.03;;;;;;;;;;5018110;28;20178;-57
2024/02/19 00:27:28;;;;;;;11.13;4.87;;;;;;;;;;5023616;28;20820;-63
2024/02/19 00:29:54;;;;;;;6.07;4.70;;;;;;;;;;5019778;28;20699;-64
2024/02/19 00:32:20;;;;;;;8.07;4.50;;;;;;;;;;5020261;28;20665;-64
2024/02/19 00:34:46;;;;;;;10.40;4.20;;;;;;;;;;5023537;28;20188;-63
2024/02/19 00:37:12;;;;;;;7.73;4.50;;;;;;;;;;5025081;28;20206;-63
2024/02/19 00:39:38;;;;;;;9.87;4.90;;;;;;;;;;5026854;28;20276;-64
2024/02/19 00:42:04;;;;;;;10.07;5.03;;;;;;;;;;5023196;28;20278;-64
2024/02/19 00:44:31;;;;;;;8.63;4.47;;;;;;;;;;5020580;28;20581;-63
2024/02/19 00:46:57;;;;;;;8.30;4.37;;;;;;;;;;5023090;28;20186;-64
2024/02/19 00:49:23;;;;;;;7.97;4.77;;;;;;;;;;5024285;28;20538;-64
2024/02/19 00:51:49;;;;;;;9.00;4.00;;;;;;;;;;5020953;28;20591;-61
2024/02/19 00:54:15;;;;;;;8.27;4.20;;;;;;;;;;5018350;28;20205;-64
2024/02/19 00:56:41;;;;;;;11.83;3.30;;;;;;;;;;5024505;28;20205;-64
2024/02/19 00:59:07;;;;;;;9.83;3.87;;;;;;;;;;5021246;28;20182;-63
2024/02/19 01:01:33;;;;;;;10.90;3.57;;;;;;;;;;5021008;28;20707;-64
2024/02/19 01:03:59;;;;;;;8.20;3.47;;;;;;;;;;5020591;28;20622;-65
2024/02/19 01:06:26;;;;;;;7.27;2.83;;;;;;;;;;5023787;28;20174;-63
2024/02/19 01:08:52;;;;;;;9.37;3.73;;;;;;;;;;5024954;28;20178;-64
2024/02/19 01:11:18;;;;;;;10.67;3.90;;;;;;;;;;5020268;28;20189;-59
2024/02/19 01:13:44;;;;;;;8.90;3.10;;;;;;;;;;5020593;28;20177;-61
2024/02/19 01:16:10;;;;;;;9.20;2.73;;;;;;;;;;5026879;28;20388;-64
2024/02/19 01:18:36;;;;;;;11.47;2.53;;;;;;;;;;5024637;28;20225;-58
2024/02/19 01:21:02;;;;;;;8.57;3.03;;;;;;;;;;5026555;28;20231;-64
2024/02/19 01:23:28;;;;;;;7.67;3.17;;;;;;;;;;5017169;28;20263;-64
2024/02/19 01:25:55;;;;;;;14.70;3.43;;;;;;;;;;5026063;28;20269;-64
2024/02/19 01:28:21;;;;;;;9.23;3.00;;;;;;;;;;5027383;28;20503;-64
2024/02/19 01:30:47;;;;;;;8.37;2.77;;;;;;;;;;5033477;28;20689;-64
2024/02/19 01:33:14;;;;;;;11.13;3.00;;;;;;;;;;5032435;28;20269;-64
2024/02/19 01:35:40;;;;;;;9.43;2.57;;;;;;;;;;5031685;28;20209;-65
2024/02/19 01:38:06;;;;;;;9.63;2.47;;;;;;;;;;5029430;28;20672;-58
2024/02/19 01:40:32;;;;;;;5.63;2.30;;;;;;;;;;5030664;28;20268;-58
2024/02/19 01:43:02;;;;;;;6.40;2.13;;;;;;;;;;5032552;28;20784;-58
2024/02/19 01:45:28;;;;;;;8.60;2.07;;;;;;;;;;5031749;28;20182;-57
2024/02/19 01:47:55;;;;;;;8.63;3.07;;;;;;;;;;5027716;28;20595;-58
2024/02/19 01:50:22;;;;;;;9.83;2.30;;;;;;;;;;5032593;28;20498;-57
2024/02/19 01:52:49;;;;;;;5.40;2.03;;;;;;;;;;5023521;28;20186;-58
2024/02/19 01:55:16;;;;;;;9.07;2.87;;;;;;;;;;5030750;28;20598;-58
2024/02/19 01:57:42;;;;;;;7.23;1.90;;;;;;;;;;5027112;28;20204;-57
2024/02/19 02:00:10;;;;;;;10.10;2.03;;;;;;;;;;5031324;28;20670;-58
2024/02/19 02:02:37;;;;;;;7.53;2.43;;;;;;;;;;5031094;28;20182;-58
2024/02/19 02:05:04;;;;;;;7.97;2.73;;;;;;;;;;5027962;28;20189;-57
2024/02/19 02:07:30;;;;;;;10.53;3.17;;;;;;;;;;5028248;28;20218;-58
2024/02/19 02:09:57;;;;;;;9.93;2.37;;;;;;;;;;5018726;28;20202;-58
2024/02/19 02:12:23;;;;;;;6.67;2.23;;;;;;;;;;5028132;28;20192;-58
2024/02/19 02:14:49;;;;;;;7.47;2.13;;;;;;;;;;5029907;28;20177;-58
2024/02/19 02:17:15;;;;;;;10.07;2.33;;;;;;;;;;5027174;28;20213;-58
2024/02/19 02:19:41;;;;;;;9.60;2.70;;;;;;;;;;5031198;28;20264;-58
2024/02/19 02:22:13;;;;;;;5.27;2.07;;;;;;;;;;5030224;28;20190;-58
2024/02/19 02:24:39;;;;;;;6.43;2.60;;;;;;;;;;5017483;28;20527;-58
2024/02/19 02:27:05;;;;;;;8.80;2.27;;;;;;;;;;5026781;28;20622;-58
2024/02/19 02:29:31;;;;;;;7.23;2.50;;;;;;;;;;5028440;28;20194;-58
2024/02/19 02:31:57;;;;;;;10.77;3.33;;;;;;;;;;5031545;28;20197;-58
2024/02/19 02:34:23;;;;;;;11.63;3.70;;;;;;;;;;5028223;28;20174;-58
2024/02/19 02:36:49;;;;;;;8.83;2.53;;;;;;;;;;5029300;28;20743;-58
2024/02/19 02:39:15;;;;;;;6.77;2.40;;;;;;;;;;5029772;28;20194;-58
2024/02/19 02:41:42;;;;;;;7.37;2.63;;;;;;;;;;5030402;28;20744;-58
2024/02/19 02:44:08;;;;;;;5.83;2.47;;;;;;;;;;5029140;28;20166;-58
2024/02/19 02:46:34;;;;;;;7.60;2.40;;;;;;;;;;5026963;28;20185;-57
2024/02/19 02:49:00;;;;;;;11.27;2.80;;;;;;;;;;5030895;28;20202;-58
2024/02/19 02:51:26;;;;;;;13.27;2.57;;;;;;;;;;5029779;28;20365;-58
2024/02/19 02:53:52;;;;;;;7.47;3.33;;;;;;;;;;5027619;28;20178;-57
2024/02/19 02:56:19;;;;;;;10.53;2.60;;;;;;;;;;5027351;28;20186;-57
2024/02/19 02:58:46;;;;;;;8.70;2.73;;;;;;;;;;5030472;28;20256;-57
2024/02/19 03:01:13;;;;;;;10.90;2.37;;;;;;;;;;5030601;28;20169;-58
2024/02/19 03:03:40;;;;;;;9.20;2.77;;;;;;;;;;5030610;28;20181;-58
2024/02/19 03:06:06;;;;;;;8.67;3.23;;;;;;;;;;5029830;28;20182;-58
2024/02/19 03:08:32;;;;;;;8.50;2.30;;;;;;;;;;5026585;28;20174;-58
2024/02/19 03:10:59;;;;;;;10.00;3.00;;;;;;;;;;5025583;28;20180;-58
2024/02/19 03:13:25;;;;;;;8.47;3.43;;;;;;;;;;5029539;28;20189;-58
2024/02/19 03:15:51;;;;;;;5.40;2.67;;;;;;;;;;5030560;28;20208;-58
2024/02/19 03:18:17;;;;;;;7.70;2.60;;;;;;;;;;5025600;28;20213;-58
2024/02/19 03:20:43;;;;;;;6.77;2.17;;;;;;;;;;5025081;28;20181;-58
2024/02/19 03:23:10;;;;;;;7.13;2.37;;;;;;;;;;5030596;28;20284;-58
2024/02/19 03:25:36;;;;;;;10.57;3.03;;;;;;;;;;5029509;28;20611;-58
2024/02/19 03:28:02;;;;;;;7.90;3.00;;;;;;;;;;5030904;28;20202;-58
2024/02/19 03:30:30;;;;;;;10.03;3.10;;;;;;;;;;5025975;28;20181;-58
2024/02/19 03:32:56;;;;;;;11.80;3.67;;;;;;;;;;5030615;28;20235;-58
2024/02/19 03:35:22;;;;;;;10.43;2.90;;;;;;;;;;5029494;28;20702;-58
2024/02/19 03:37:48;;;;;;;9.67;2.57;;;;;;;;;;5027834;28;20300;-57
2024/02/19 03:40:14;;;;;;;6.47;2.50;;;;;;;;;;5029175;28;20265;-58
2024/02/19 03:42:40;;;;;;;8.67;2.60;;;;;;;;;;5029104;28;20770;-58
2024/02/19 03:45:06;;;;;;;8.13;3.23;;;;;;;;;;5030475;28;20177;-58
2024/02/19 03:47:32;;;;;;;9.13;2.80;;;;;;;;;;5029712;28;20549;-58
2024/02/19 03:49:58;;;;;;;7.03;2.80;;;;;;;;;;5030177;28;20174;-58
2024/02/19 03:52:24;;;;;;;6.73;2.83;;;;;;;;;;5027691;28;20178;-57
2024/02/19 03:54:50;;;;;;;9.13;2.60;;;;;;;;;;5028921;28;20181;-58
2024/02/19 03:57:16;;;;;;;9.17;2.77;;;;;;;;;;5029709;28;20720;-58
2024/02/19 03:59:42;;;;;;;13.93;3.23;;;;;;;;;;5025340;28;20261;-58
2024/02/19 04:02:08;;;;;;;7.23;3.43;;;;;;;;;;5029436;28;20701;-57
2024/02/19 04:04:34;;;;;;;13.90;2.87;;;;;;;;;;5017036;28;20177;-58
2024/02/19 04:07:00;;;;;;;9.70;3.83;;;;;;;;;;5026644;28;20185;-58
2024/02/19 04:09:27;;;;;;;7.90;3.10;;;;;;;;;;5028152;28;20532;-57
2024/02/19 04:11:53;;;;;;;7.67;2.50;;;;;;;;;;5029051;28;20181;-58
2024/02/19 04:14:19;;;;;;;14.00;4.47;;;;;;;;;;5029721;28;20264;-58
2024/02/19 04:16:45;;;;;;;9.10;3.83;;;;;;;;;;5028776;28;20364;-58
2024/02/19 04:19:11;;;;;;;14.73;3.60;;;;;;;;;;5026837;28;20222;-58
2024/02/19 04:21:42;;;;;;;11.43;2.40;;;;;;;;;;5025986;28;20181;-58
2024/02/19 04:24:08;;;;;;;9.80;2.60;;;;;;;;;;5023193;28;20264;-58
2024/02/19 04:26:34;;;;;;;7.33;2.43;;;;;;;;;;5021797;28;20648;-58
2024/02/19 04:29:00;;;;;;;5.93;2.30;;;;;;;;;;5024059;28;20200;-58
2024/02/19 04:31:26;;;;;;;7.63;2.43;;;;;;;;;;5030053;28;20170;-58
2024/02/19 04:33:52;;;;;;;8.30;2.77;;;;;;;;;;5024510;28;20216;-58
2024/02/19 04:36:18;;;;;;;6.77;2.20;;;;;;;;;;5028984;28;20273;-57
2024/02/19 04:38:44;;;;;;;6.27;2.50;;;;;;;;;;5026269;28;20699;-57
2024/02/19 04:41:10;;;;;;;7.47;2.70;;;;;;;;;;5029428;28;20174;-57
2024/02/19 04:43:36;;;;;;;9.13;2.90;;;;;;;;;;5029035;28;20202;-58
2024/02/19 04:46:02;;;;;;;5.83;2.33;;;;;;;;;;5029525;28;20206;-58
2024/02/19 04:48:29;;;;;;;9.00;2.40;;;;;;;;;;5021686;28;20232;-58
2024/02/19 04:50:55;;;;;;;10.23;2.93;;;;;;;;;;5023013;28;20297;-58
2024/02/19 04:53:21;;;;;;;6.53;2.30;;;;;;;;;;5022697;28;20526;-58
2024/02/19 04:55:47;;;;;;;8.53;2.70;;;;;;;;;;5024148;28;20196;-58
2024/02/19 04:58:13;;;;;;;8.57;2.30;;;;;;;;;;5029022;28;20219;-58
2024/02/19 05:00:40;;;;;;;7.33;2.53;;;;;;;;;;5025682;28;20189;-57
2024/02/19 05:03:07;;;;;;;8.73;2.53;;;;;;;;;;5023250;28;20183;-59
2024/02/19 05:05:33;;;;;;;9.70;2.30;;;;;;;;;;5011785;28;20236;-58
2024/02/19 05:07:59;;;;;;;7.40;2.67;;;;;;;;;;5027282;28;20181;-58
2024/02/19 05:10:25;;;;;;;7.73;2.00;;;;;;;;;;5027987;28;20182;-58
2024/02/19 05:12:51;;;;;;;7.30;2.30;;;;;;;;;;5028634;28;20522;-59
2024/02/19 05:15:17;;;;;;;6.57;2.30;;;;;;;;;;5028642;28;20182;-58
2024/02/19 05:17:43;;;;;;;12.53;2.77;;;;;;;;;;5027260;28;20315;-58
2024/02/19 05:20:10;;;;;;;8.23;2.87;;;;;;;;;;5027137;28;20210;-58
2024/02/19 05:22:37;;;;;;;6.10;2.30;;;;;;;;;;5026755;28;20235;-58
2024/02/19 05:25:03;;;;;;;10.47;2.30;;;;;;;;;;5027004;28;20531;-59
2024/02/19 05:27:29;;;;;;;6.30;2.47;;;;;;;;;;5028070;28;20170;-58
2024/02/19 05:29:55;;;;;;;10.23;2.77;;;;;;;;;;5028541;28;20663;-57
2024/02/19 05:32:23;;;;;;;9.80;2.73;;;;;;;;;;5015733;28;20182;-57
2024/02/19 05:34:49;;;;;;;7.43;2.63;;;;;;;;;;5027214;28;20921;-58
2024/02/19 05:37:15;;;;;;;8.60;3.00;;;;;;;;;;5025369;28;20699;-58
2024/02/19 05:39:41;;;;;;;8.00;2.90;;;;;;;;;;5023478;28;20261;-58
2024/02/19 05:42:08;;;;;;;13.23;3.17;;;;;;;;;;5027675;28;20221;-59
2024/02/19 05:44:34;;;;;;;9.27;3.60;;;;;;;;;;5023198;28;20213;-59
2024/02/19 05:47:00;;;;;;;7.63;2.80;;;;;;;;;;5021810;28;20548;-58
2024/02/19 05:49:26;;;;;;;12.33;2.97;;;;;;;;;;5027847;28;20174;-58
2024/02/19 05:51:52;;;;;;;6.50;3.13;;;;;;;;;;5026982;28;25080;-58
2024/02/19 05:54:21;;;;;;;9.20;3.67;;;;;;;;;;5025030;28;20209;-58
2024/02/19 05:56:47;;;;;;;8.50;2.57;;;;;;;;;;5026015;28;20286;-58
2024/02/19 05:59:13;;;;;;;13.20;4.45;;;;;;;;;;5027653;28;20180;-58
2024/02/19 06:01:39;;;;;;;7.03;3.90;;;;;;;;;;5023523;28;20214;-58
2024/02/19 06:04:05;;;;;;;9.77;3.80;;;;;;;;;;5021038;28;20208;-58
2024/02/19 06:06:31;;;;;;;10.53;3.60;;;;;;;;;;5025184;28;20899;-58
2024/02/19 06:08:57;;;;;;;7.03;3.30;;;;;;;;;;5021530;28;20297;-59
2024/02/19 06:11:24;;;;;;;7.60;2.93;;;;;;;;;;5014056;28;20271;-58
2024/02/19 06:13:52;;;;;;;9.03;3.47;;;;;;;;;;5023405;28;20526;-59
2024/02/19 06:16:18;;;;;;;9.27;3.37;;;;;;;;;;5023807;28;20261;-59
2024/02/19 06:18:44;;;;;;;12.87;4.00;;;;;;;;;;5025323;28;20672;-56
2024/02/19 06:21:10;;;;;;;6.87;3.50;;;;;;;;;;5025639;28;20196;-53
2024/02/19 06:23:36;;;;;;;13.57;4.33;;;;;;;;;;5028331;28;20170;-56
2024/02/19 06:26:03;;;;;;;12.27;5.10;;;;;;;;;;5032489;28;20220;-55
2024/02/19 06:28:29;;;;;;;9.20;4.17;;;;;;;;;;5030879;28;20209;-56
2024/02/19 06:30:55;;;;;;;12.67;4.27;;;;;;;;;;5031749;28;20642;-56
2024/02/19 06:33:21;;;;;;;12.67;4.23;;;;;;;;;;5028146;28;20276;-55
2024/02/19 06:35:47;;;;;;;8.47;4.30;;;;;;;;;;5029755;28;20185;-55
2024/02/19 06:38:13;;;;;;;10.33;5.07;;;;;;;;;;5026498;28;20198;-57
2024/02/19 06:40:39;;;;;;;10.23;4.87;;;;;;;;;;5030474;28;20236;-56
2024/02/19 06:43:05;;;;;;;11.30;4.43;;;;;;;;;;5026019;28;20626;-56
2024/02/19 06:45:31;;;;;;;10.43;4.93;;;;;;;;;;5028022;28;20642;-57
2024/02/19 06:47:57;;;;;;;7.23;4.20;;;;;;;;;;5026103;28;20186;-56
2024/02/19 06:50:23;;;;;;;7.90;4.07;;;;;;;;;;5027303;28;20247;-57
2024/02/19 06:52:49;;;;;;;11.90;4.50;;;;;;;;;;5030212;28;20182;-57
2024/02/19 06:55:16;;;;;;;9.47;4.97;;;;;;;;;;5024333;28;20178;-57
2024/02/19 06:57:42;;;;;;;8.77;4.90;;;;;;;;;;5029516;28;20691;-55
2024/02/19 07:00:11;;;;;;;7.97;4.23;;;;;;;;;;5015754;28;20749;-57
2024/02/19 07:02:38;;;;;;;9.77;4.20;;;;;;;;;;5029814;28;20210;-56
2024/02/19 07:05:05;;;;;;;9.77;4.30;;;;;;;;;;5030179;28;20205;-56
2024/02/19 07:07:32;;;;;;;11.97;4.10;;;;;;;;;;5020833;28;20220;-56
2024/02/19 07:09:58;;;;;;;9.80;4.10;;;;;;;;;;5019597;28;20217;-57
2024/02/19 07:12:25;;;;;;;9.50;4.30;;;;;;;;;;5028976;28;20180;-57
2024/02/19 07:14:51;;;;;;;11.23;4.03;;;;;;;;;;5030406;28;20185;-56
2024/02/19 07:17:17;;;;;;;9.50;4.13;;;;;;;;;;5029206;28;20257;-56
2024/02/19 07:19:43;;;;;;;11.60;5.13;;;;;;;;;;5029638;28;20523;-57
2024/02/19 07:22:09;;;;;;;7.33;4.33;;;;;;;;;;5027743;28;20185;-57
2024/02/19 07:24:38;;;;;;;10.30;4.73;;;;;;;;;;5024320;28;20166;-56
2024/02/19 07:27:05;;;;;;;10.77;4.63;;;;;;;;;;5020300;28;20181;-57
2024/02/19 07:29:31;;;;;;;14.37;5.30;;;;;;;;;;5024794;28;20327;-57
2024/02/19 07:31:57;;;;;;;10.67;5.00;;;;;;;;;;5030106;28;20198;-57
2024/02/19 07:34:23;;;;;;;12.90;5.03;;;;;;;;;;5028938;28;20186;-56
2024/02/19 07:36:49;;;;;;;11.47;4.57;;;;;;;;;;5016591;28;20178;-57
2024/02/19 07:39:16;;;;;;;12.30;5.33;;;;;;;;;;5022259;28;20274;-57
2024/02/19 07:41:42;;;;;;;9.67;4.80;;;;;;;;;;5022149;28;20178;-56
2024/02/19 07:44:08;;;;;;;7.83;5.23;;;;;;;;;;5022250;28;20766;-55
2024/02/19 07:46:34;;;;;;;10.43;4.50;;;;;;;;;;5026818;28;20184;-57
2024/02/19 07:49:00;;;;;;;10.20;4.93;;;;;;;;;;5021370;28;20629;-55
2024/02/19 07:51:26;;;;;;;7.83;5.00;;;;;;;;;;5027232;28;20174;-57
2024/02/19 07:53:52;;;;;;;10.07;4.77;;;;;;;;;;5028854;28;20935;-56
2024/02/19 07:56:18;;;;;;;11.00;4.73;;;;;;;;;;5029265;28;20180;-56
2024/02/19 07:58:44;;;;;;;8.23;4.13;;;;;;;;;;5019207;28;20202;-58
2024/02/19 08:01:10;;;;;;;9.60;4.70;;;;;;;;;;5022225;28;20184;-57
2024/02/19 08:03:36;;;;;;;14.73;4.60;;;;;;;;;;5030539;28;20180;-56
2024/02/19 08:06:02;;;;;;;12.97;5.07;;;;;;;;;;5022213;28;20179;-58
2024/02/19 08:08:29;;;;;;;10.47;4.17;;;;;;;;;;5014044;28;20190;-57
2024/02/19 08:10:55;;;;;;;10.40;4.63;;;;;;;;;;5018602;28;20199;-56
2024/02/19 08:13:21;;;;;;;16.27;4.73;;;;;;;;;;5037346;28;20190;-57
2024/02/19 08:15:48;;;;;;;10.17;4.97;;;;;;;;;;5022427;28;20284;-59
2024/02/19 08:18:14;;;;;;;11.20;4.53;;;;;;;;;;5018617;28;20226;-56
2024/02/19 08:20:41;;;;;;;12.83;4.37;;;;;;;;;;5023349;28;20182;-56
2024/02/19 08:23:07;;;;;;;7.07;4.07;;;;;;;;;;5023992;28;20510;-55
2024/02/19 08:25:33;;;;;;;8.93;3.60;;;;;;;;;;5023231;28;20178;-56
2024/02/19 08:28:00;;;;;;;8.97;4.37;;;;;;;;;;5025649;28;20289;-57
2024/02/19 08:30:26;;;;;;;6.73;3.80;;;;;;;;;;5024933;28;20189;-56
2024/02/19 08:32:52;;;;;;;10.83;3.93;;;;;;;;;;5023339;28;20679;-57
2024/02/19 08:35:18;;;;;;;8.27;4.43;;;;;;;;;;5024082;28;20646;-56
2024/02/19 08:37:44;;;;;;;9.33;3.57;;;;;;;;;;5020580;28;20249;-57
2024/02/19 08:40:11;;;;;;;9.57;4.50;;;;;;;;;;5019463;28;20169;-58
2024/02/19 08:42:37;;;;;;;9.37;4.77;;;;;;;;;;5016712;28;20256;-58
2024/02/19 08:45:03;;;;;;;11.77;4.27;;;;;;;;;;5016512;28;20178;-58
2024/02/19 08:47:30;;;;;;;9.37;4.00;;;;;;;;;;5015107;28;20226;-58
2024/02/19 08:49:56;;;;;;;5.23;3.13;;;;;;;;;;5018240;28;20348;-58
2024/02/19 08:52:22;;;;;;;12.53;3.63;;;;;;;;;;5015459;28;20213;-58
2024/02/19 08:54:49;;;;;;;7.53;3.73;;;;;;;;;;5007397;28;20240;-58
2024/02/19 08:57:15;;;;;;;8.33;3.23;;;;;;;;;;5017054;28;20646;-58
2024/02/19 08:59:45;;;;;;;8.90;4.00;;;;;;;;;;5016055;28;20170;-59
2024/02/19 09:02:12;;;;;;;9.30;3.83;;;;;;;;;;5014155;28;20171;-58
2024/02/19 09:04:38;;;;;;;6.67;3.73;;;;;;;;;;5021942;28;20193;-58
2024/02/19 09:07:04;;;;;;;8.87;3.57;;;;;;;;;;5021724;28;20622;-58
2024/02/19 09:09:30;;;;;;;7.00;3.67;;;;;;;;;;5018133;28;20491;-59
2024/02/19 09:11:56;;;;;;;8.73;3.80;;;;;;;;;;5018068;28;20695;-59
2024/02/19 09:14:22;;;;;;;8.10;3.47;;;;;;;;;;5016574;28;20248;-58
2024/02/19 09:16:48;;;;;;;7.93;4.20;;;;;;;;;;5018992;28;20180;-59
2024/02/19 09:19:15;;;;;;;5.80;2.73;;;;;;;;;;5019370;28;20316;-58
2024/02/19 09:21:43;;;;;;;7.67;3.03;;;;;;;;;;5016894;28;20178;-58
2024/02/19 09:24:11;;;;;;;9.67;4.13;;;;;;;;;;5013781;28;20551;-58
2024/02/19 09:26:37;;;;;;;8.60;3.83;;;;;;;;;;5019162;28;20181;-58
2024/02/19 09:29:03;;;;;;;10.13;3.50;;;;;;;;;;5019759;28;20186;-59
2024/02/19 09:31:29;;;;;;;6.63;2.93;;;;;;;;;;5021384;28;20662;-58
2024/02/19 09:33:55;;;;;;;9.43;3.73;;;;;;;;;;5024738;28;20189;-58
2024/02/19 09:36:21;;;;;;;8.27;3.73;;;;;;;;;;5018595;28;20218;-58
2024/02/19 09:38:48;;;;;;;7.73;3.60;;;;;;;;;;5030862;28;20289;-58
2024/02/19 09:41:14;;;;;;;6.60;3.33;;;;;;;;;;5017877;28;20178;-58
2024/02/19 09:43:40;;;;;;;9.03;3.77;;;;;;;;;;5014815;28;20206;-59
2024/02/19 09:46:14;;;;;;;8.90;3.83;;;;;;;;;;5020544;28;20185;-59
2024/02/19 09:48:40;;;;;;;8.27;3.40;;;;;;;;;;5019450;28;20182;-58
2024/02/19 09:51:08;;;;;;;6.33;3.70;;;;;;;;;;5028101;28;20707;-64
2024/02/19 09:53:35;;;;;;;8.13;3.20;;;;;;;;;;5022334;28;20646;-62
2024/02/19 09:56:01;;;;;;;7.90;4.00;;;;;;;;;;5026140;28;20664;-63
2024/02/19 09:58:27;;;;;;;10.13;3.80;;;;;;;;;;5020085;28;20543;-63
2024/02/19 10:00:53;;;;;;;9.43;4.30;;;;;;;;;;5025500;28;20209;-64
2024/02/19 10:03:20;;;;;;;7.40;4.23;;;;;;;;;;5027186;28;20185;-64
2024/02/19 10:05:46;;;;;;;8.07;5.10;;;;;;;;;;5024668;28;20193;-60
2024/02/19 10:08:14;;;;;;;11.20;4.43;;;;;;;;;;5028992;28;20666;-64
2024/02/19 10:10:43;;;;;;;8.63;4.10;;;;;;;;;;5022180;28;20184;-63
2024/02/19 10:13:12;;;;;;;12.60;4.37;;;;;;;;;;5025172;28;20272;-64
2024/02/19 10:15:39;;;;;;;12.50;5.73;;;;;;;;;;5020191;28;20182;-62
2024/02/19 10:18:21;;;;;;;9.10;5.07;;;;;;;;;;5023763;28;20611;-65
2024/02/19 10:20:50;;;;;;;10.23;5.43;;;;;;;;;;5023514;28;20190;-64
2024/02/19 10:23:17;;;;;;;13.53;5.43;;;;;;;;;;5024564;28;20186;-64
2024/02/19 10:25:44;;;;;;;12.50;5.87;;;;;;;;;;5019914;28;20245;-64
2024/02/19 10:28:10;;;;;;;13.60;5.87;;;;;;;;;;5021810;28;20650;-64
2024/02/19 10:30:38;;;;;;;11.33;6.17;;;;;;;;;;5025386;28;20293;-65
2024/02/19 10:33:04;;;;;;;16.57;6.27;;;;;;;;;;5022032;28;20189;-64
2024/02/19 10:35:31;;;;;;;13.50;6.73;;;;;;;;;;5021624;28;20178;-62
2024/02/19 10:37:59;;;;;;;10.67;6.67;;;;;;;;;;5025908;28;20229;-63
2024/02/19 10:40:25;;;;;;;13.27;7.47;;;;;;;;;;5024942;28;20551;-65
2024/02/19 10:42:51;;;;;;;11.07;6.60;;;;;;;;;;5025651;28;20206;-65
2024/02/19 10:45:20;;;;;;;10.77;6.90;;;;;;;;;;5022910;28;20187;-64
2024/02/19 10:47:46;;;;;;;17.23;7.10;;;;;;;;;;5024681;28;20182;-65
2024/02/19 10:50:18;;;;;;;15.00;7.20;;;;;;;;;;5023605;28;20182;-64
2024/02/19 10:52:47;;;;;;;14.07;6.77;;;;;;;;;;5023731;28;20696;-65
2024/02/19 10:55:17;;;;;;;14.73;7.30;;;;;;;;;;5021717;28;20264;-64
2024/02/19 10:57:46;;;;;;;11.87;7.03;;;;;;;;;;5025252;28;20260;-65
2024/02/19 11:00:13;;;;;;;15.73;7.00;;;;;;;;;;5023586;28;20182;-62
2024/02/19 11:02:39;;;;;;;15.60;7.63;;;;;;;;;;5023734;28;20182;-64
2024/02/19 11:05:09;;;;;;;10.23;7.70;;;;;;;;;;5024316;28;20209;-63
2024/02/19 11:07:35;;;;;;;14.20;7.97;;;;;;;;;;5027394;28;20642;-64
2024/02/19 11:10:04;;;;;;;13.40;6.67;;;;;;;;;;5018932;28;20182;-65
2024/02/19 11:12:30;;;;;;;13.40;8.10;;;;;;;;;;5022221;28;20189;-65
2024/02/19 11:14:56;;;;;;;11.47;7.47;;;;;;;;;;5023959;28;20182;-64
2024/02/19 11:17:25;;;;;;;20.50;7.60;;;;;;;;;;5024549;28;20594;-62
2024/02/19 11:19:54;;;;;;;15.83;7.87;;;;;;;;;;5019818;28;20381;-64
2024/02/19 11:22:29;;;;;;;13.30;7.10;;;;;;;;;;5020291;28;20206;-64
2024/02/19 11:24:55;;;;;;;17.00;10.27;;;;;;;;;;5023284;28;20662;-65
2024/02/19 11:27:22;;;;;;;12.90;8.33;;;;;;;;;;5023566;28;20594;-64
2024/02/19 11:29:54;;;;;;;14.90;7.60;;;;;;;;;;5023654;28;20182;-64
2024/02/19 11:32:20;;;;;;;15.83;7.73;;;;;;;;;;5028464;28;20582;-64
2024/02/19 11:34:46;;;;;;;11.63;7.80;;;;;;;;;;5020403;28;20258;-65
2024/02/19 11:37:13;;;;;;;12.53;8.00;;;;;;;;;;5020799;28;20202;-65
2024/02/19 11:39:40;;;;;;;13.33;7.83;;;;;;;;;;5019219;28;20179;-65
2024/02/19 11:42:09;;;;;;;12.57;6.97;;;;;;;;;;5025735;28;20644;-65
2024/02/19 11:44:35;;;;;;;17.97;8.50;;;;;;;;;;5027029;28;20180;-65
2024/02/19 11:47:02;;;;;;;13.03;7.67;;;;;;;;;;5026873;28;20178;-65
2024/02/19 11:49:29;;;;;;;10.53;7.43;;;;;;;;;;5021893;28;20177;-65
2024/02/19 11:51:55;;;;;;;11.60;8.60;;;;;;;;;;5024380;28;20587;-65
2024/02/19 11:54:21;;;;;;;13.10;8.83;;;;;;;;;;5016626;28;20640;-65
2024/02/19 11:56:53;;;;;;;16.07;7.57;;;;;;;;;;5024353;28;20683;-65
2024/02/19 11:59:19;;;;;;;9.90;8.67;;;;;;;;;;5019881;28;20183;-64
2024/02/19 12:01:46;;;;;;;13.93;8.03;;;;;;;;;;5021359;28;20174;-65
2024/02/19 12:04:13;;;;;;;12.30;7.77;;;;;;;;;;5019253;28;20185;-65
2024/02/19 12:06:40;;;;;;;15.53;8.50;;;;;;;;;;5022989;28;20173;-65
2024/02/19 12:09:08;;;;;;;13.43;8.50;;;;;;;;;;5022652;28;20213;-65
2024/02/19 12:11:34;;;;;;;15.27;7.93;;;;;;;;;;5018298;28;20518;-64
2024/02/19 12:14:00;;;;;;;14.67;8.43;;;;;;;;;;5023279;28;20234;-63
2024/02/19 12:16:27;;;;;;;10.20;7.90;;;;;;;;;;5022022;28;20614;-64
2024/02/19 12:18:54;;;;;;;12.83;7.97;;;;;;;;;;5016193;28;20272;-64
2024/02/19 12:21:22;;;;;;;14.43;7.97;;;;;;;;;;5020708;28;20174;-62
2024/02/19 12:23:50;;;;;;;13.73;7.63;;;;;;;;;;5023467;28;20613;-64
2024/02/19 12:26:16;;;;;;;14.07;7.97;;;;;;;;;;5024018;28;20239;-64
2024/02/19 12:28:42;;;;;;;14.90;8.33;;;;;;;;;;5020925;28;20344;-63
2024/02/19 12:31:08;;;;;;;12.50;7.67;;;;;;;;;;5013012;28;20183;-63
2024/02/19 12:33:37;;;;;;;11.93;7.63;;;;;;;;;;5019166;28;20194;-63
2024/02/19 12:36:08;;;;;;;11.50;7.23;;;;;;;;;;5018068;28;20217;-63
2024/02/19 12:38:35;;;;;;;10.87;7.37;;;;;;;;;;5023149;28;20305;-60
2024/02/19 12:41:01;;;;;;;13.17;7.33;;;;;;;;;;5021294;28;20182;-64
2024/02/19 12:43:27;;;;;;;12.17;7.33;;;;;;;;;;5022228;28;20574;-63
2024/02/19 12:45:53;;;;;;;13.30;7.17;;;;;;;;;;5021443;28;20240;-63
2024/02/19 12:48:19;;;;;;;8.13;6.33;;;;;;;;;;5015139;28;20642;-63
2024/02/19 12:50:45;;;;;;;9.57;7.50;;;;;;;;;;5020748;28;20292;-62
2024/02/19 12:53:13;;;;;;;8.07;7.03;;;;;;;;;;5024025;28;20170;-64
2024/02/19 12:55:40;;;;;;;15.87;6.97;;;;;;;;;;5020316;28;20189;-63
2024/02/19 12:58:06;;;;;;;11.83;7.27;;;;;;;;;;5015340;28;20198;-64
2024/02/19 13:00:32;;;;;;;12.23;6.33;;;;;;;;;;5020500;28;20614;-62
2024/02/19 13:02:59;;;;;;;12.63;6.80;;;;;;;;;;5021471;28;20190;-63
2024/02/19 13:05:27;;;;;;;11.73;5.90;;;;;;;;;;5026388;28;20180;-64
2024/02/19 13:07:53;;;;;;;11.47;6.77;;;;;;;;;;5020719;28;20546;-67
2024/02/19 13:10:19;;;;;;;13.75;7.45;;;;;;;;;;5015098;28;20468;-62
2024/02/19 13:12:45;;;;;;;12.43;6.57;;;;;;;;;;5016654;28;20183;-59
2024/02/19 13:15:11;;;;;;;9.63;5.83;;;;;;;;;;5016498;28;20364;-59
2024/02/19 13:17:38;;;;;;;7.20;5.17;;;;;;;;;;5024555;28;20596;-59
2024/02/19 13:20:04;;;;;;;10.50;4.53;;;;;;;;;;5021567;28;20755;-59
2024/02/19 13:22:30;;;;;;;12.03;5.30;;;;;;;;;;5017588;28;20588;-59
2024/02/19 13:24:56;;;;;;;7.90;5.57;;;;;;;;;;5011894;28;25064;-59
2024/02/19 13:27:23;;;;;;;12.50;6.53;;;;;;;;;;5021682;28;20185;-59
2024/02/19 13:29:49;;;;;;;9.93;5.97;;;;;;;;;;5020302;28;20192;-59
2024/02/19 13:32:15;;;;;;;11.10;5.20;;;;;;;;;;5020757;28;20582;-59
2024/02/19 13:34:41;;;;;;;11.43;5.80;;;;;;;;;;5023147;28;20185;-59
2024/02/19 13:37:07;;;;;;;11.03;5.63;;;;;;;;;;5016168;28;20228;-58
2024/02/19 13:39:33;;;;;;;7.73;5.30;;;;;;;;;;5015317;28;20174;-59
2024/02/19 13:41:59;;;;;;;11.83;5.77;;;;;;;;;;5017377;28;20184;-58
2024/02/19 13:44:25;;;;;;;10.60;6.47;;;;;;;;;;5019071;28;20174;-58
2024/02/19 13:46:51;;;;;;;8.57;5.43;;;;;;;;;;5020394;28;20251;-58
2024/02/19 13:49:19;;;;;;;11.00;5.67;;;;;;;;;;5020077;28;20642;-59
2024/02/19 13:51:45;;;;;;;10.97;5.67;;;;;;;;;;5017589;28;20293;-59
2024/02/19 13:54:12;;;;;;;13.50;7.00;;;;;;;;;;5018646;28;20237;-59
2024/02/19 13:56:39;;;;;;;14.10;6.57;;;;;;;;;;5023179;28;20178;-59
2024/02/19 13:59:07;;;;;;;9.33;6.23;;;;;;;;;;5018467;28;20580;-59
2024/02/19 14:01:33;;;;;;;15.80;6.97;;;;;;;;;;5019773;28;20667;-59
2024/02/19 14:04:00;;;;;;;18.03;6.73;;;;;;;;;;5016366;28;20293;-59
2024/02/19 14:06:26;;;;;;;12.83;7.03;;;;;;;;;;5019927;28;20312;-59
2024/02/19 14:08:53;;;;;;;13.37;7.03;;;;;;;;;;5023673;28;20673;-59
2024/02/19 14:11:19;;;;;;;7.67;6.80;;;;;;;;;;5023325;28;20571;-59
2024/02/19 14:13:45;;;;;;;12.57;7.87;;;;;;;;;;5020384;28;20212;-59
2024/02/19 14:16:11;;;;;;;11.90;8.10;;;;;;;;;;5019098;28;20585;-59
2024/02/19 14:18:37;;;;;;;10.13;7.67;;;;;;;;;;5020692;28;20759;-59
2024/02/19 14:21:04;;;;;;;9.40;7.10;;;;;;;;;;5021035;28;20209;-58
2024/02/19 14:23:30;;;;;;;8.10;6.07;;;;;;;;;;5021863;28;20288;-58
2024/02/19 14:25:56;;;;;;;16.30;8.03;;;;;;;;;;5018606;28;20174;-59
2024/02/19 14:28:22;;;;;;;9.83;6.43;;;;;;;;;;5014688;28;20186;-57
2024/02/19 14:30:48;;;;;;;10.33;6.57;;;;;;;;;;5018914;28;20186;-56